createdAt,value
2022-12-25T00:01:40.557Z,8.96
2022-12-25T00:04:07.359Z,8.97
2022-12-25T00:06:33.961Z,9.00
2022-12-25T00:09:00.694Z,9.05
2022-12-25T00:11:27.329Z,9.05
2022-12-25T00:13:54.005Z,9.10
2022-12-25T00:16:24.043Z,9.18
2022-12-25T00:18:51.629Z,9.09
2022-12-25T00:21:19.338Z,9.21
2022-12-25T00:23:45.988Z,9.19
2022-12-25T00:26:16.466Z,9.23
2022-12-25T00:28:43.447Z,9.27
2022-12-25T00:31:14.005Z,9.29
2022-12-25T00:33:42.301Z,9.30
2022-12-25T00:36:10.735Z,9.32
2022-12-25T00:38:39.719Z,9.33
2022-12-25T00:41:08.076Z,9.34
2022-12-25T00:43:34.802Z,9.24
2022-12-25T00:46:03.404Z,9.26
2022-12-25T00:48:31.046Z,9.22
2022-12-25T00:51:01.124Z,9.19
2022-12-25T00:53:28.814Z,9.13
2022-12-25T00:55:58.928Z,9.09
2022-12-25T00:58:27.495Z,9.07
2022-12-25T01:00:54.411Z,9.04
2022-12-25T01:03:21.128Z,9.03
2022-12-25T01:05:59.531Z,8.96
2022-12-25T01:08:27.398Z,8.96
2022-12-25T01:10:56.652Z,8.95
2022-12-25T01:13:23.452Z,8.94
2022-12-25T01:15:52.198Z,8.92
2022-12-25T01:18:19.799Z,8.91
2022-12-25T01:20:47.205Z,8.89
2022-12-25T01:23:14.997Z,8.90
2022-12-25T01:25:42.065Z,8.87
2022-12-25T01:28:09.159Z,8.85
2022-12-25T01:30:35.720Z,8.84
2022-12-25T01:33:02.311Z,8.83
2022-12-25T01:35:28.886Z,8.83
2022-12-25T01:37:55.545Z,8.81
2022-12-25T01:40:22.153Z,8.76
2022-12-25T01:42:48.860Z,8.78
2022-12-25T01:48:11.931Z,8.73
2022-12-25T01:50:40.924Z,8.73
2022-12-25T01:53:08.042Z,8.71
2022-12-25T01:55:36.286Z,8.68
2022-12-25T01:58:03.788Z,8.64
2022-12-25T02:00:30.479Z,8.65
2022-12-25T02:02:57.910Z,8.66
2022-12-25T02:05:31.270Z,8.63
2022-12-25T02:08:02.082Z,8.64
2022-12-25T02:10:29.039Z,8.66
2022-12-25T02:12:56.044Z,8.68
2022-12-25T02:15:30.290Z,8.71
2022-12-25T02:18:22.440Z,8.69
2022-12-25T02:31:48.605Z,8.62
2022-12-25T02:42:50.723Z,8.68
2022-12-25T02:45:43.758Z,8.69
2022-12-25T02:48:32.351Z,8.71
2022-12-25T02:51:24.192Z,8.73
2022-12-25T02:54:14.899Z,8.76
2022-12-25T02:57:05.368Z,8.79
2022-12-25T02:59:55.976Z,8.79
2022-12-25T03:02:45.344Z,8.76
2022-12-25T03:05:37.003Z,8.79
2022-12-25T03:08:07.829Z,8.81
2022-12-25T03:11:00.137Z,8.81
2022-12-25T03:13:34.265Z,8.85
2022-12-25T03:16:21.022Z,8.85
2022-12-25T03:18:48.276Z,8.82
2022-12-25T03:21:34.820Z,8.87
2022-12-25T03:24:21.864Z,8.88
2022-12-25T03:26:56.820Z,8.94
2022-12-25T03:29:51.533Z,8.95
2022-12-25T03:32:40.800Z,8.90
2022-12-25T03:43:50.691Z,8.91
2022-12-25T03:46:40.832Z,8.90
2022-12-25T03:49:45.227Z,8.92
2022-12-25T03:52:35.793Z,8.98
2022-12-25T03:55:26.931Z,9.00
2022-12-25T03:58:13.428Z,8.94
2022-12-25T04:01:00.136Z,8.95
2022-12-25T04:03:46.970Z,8.95
2022-12-25T04:06:33.518Z,8.98
2022-12-25T04:09:20.117Z,8.91
2022-12-25T04:12:06.710Z,8.92
2022-12-25T04:14:53.358Z,8.95
2022-12-25T04:17:39.953Z,8.97
2022-12-25T04:20:27.237Z,8.94
2022-12-25T04:23:13.891Z,8.97
2022-12-25T04:26:00.441Z,8.90
2022-12-25T04:28:47.091Z,8.95
2022-12-25T04:31:33.656Z,8.95
2022-12-25T04:34:20.291Z,8.98
2022-12-25T04:36:46.855Z,9.00
2022-12-25T04:39:13.529Z,8.97
2022-12-25T04:41:40.133Z,8.98
2022-12-25T04:44:06.790Z,8.99
2022-12-25T04:46:33.454Z,8.95
2022-12-25T04:49:00.283Z,8.95
2022-12-25T04:51:27.094Z,8.94
2022-12-25T04:53:54.860Z,8.97
2022-12-25T04:56:22.138Z,8.96
2022-12-25T04:58:49.598Z,8.95
2022-12-25T05:01:16.949Z,8.96
2022-12-25T05:03:43.767Z,8.96
2022-12-25T05:06:10.876Z,8.95
2022-12-25T05:08:37.698Z,8.98
2022-12-25T05:11:09.686Z,8.96
2022-12-25T05:13:36.679Z,8.97
2022-12-25T05:16:09.569Z,8.96
2022-12-25T05:18:36.431Z,8.96
2022-12-25T05:21:04.550Z,8.97
2022-12-25T05:23:31.480Z,8.97
2022-12-25T05:25:58.440Z,8.96
2022-12-25T05:28:24.991Z,8.95
2022-12-25T05:30:51.754Z,8.94
2022-12-25T05:33:18.545Z,8.98
2022-12-25T05:35:45.176Z,8.98
2022-12-25T05:38:11.775Z,8.96
2022-12-25T05:40:41.091Z,9.02
2022-12-25T05:43:08.066Z,9.01
2022-12-25T05:45:34.821Z,8.99
2022-12-25T05:48:01.525Z,9.03
2022-12-25T05:50:28.236Z,9.04
2022-12-25T05:52:54.850Z,8.97
2022-12-25T05:55:21.541Z,9.00
2022-12-25T05:57:48.552Z,9.04
2022-12-25T06:00:15.351Z,9.00
2022-12-25T06:02:42.186Z,9.02
2022-12-25T06:05:09.991Z,9.02
2022-12-25T06:07:36.636Z,9.03
2022-12-25T06:10:03.382Z,9.03
2022-12-25T06:12:30.044Z,9.04
2022-12-25T06:14:56.628Z,9.03
2022-12-25T06:17:25.808Z,9.06
2022-12-25T06:19:53.406Z,9.07
2022-12-25T06:22:20.511Z,9.07
2022-12-25T06:24:47.211Z,9.06
2022-12-25T06:27:14.079Z,8.99
2022-12-25T06:29:40.829Z,9.07
2022-12-25T06:32:07.432Z,9.03
2022-12-25T06:34:33.995Z,9.03
2022-12-25T06:37:00.796Z,9.03
2022-12-25T06:39:27.350Z,9.02
2022-12-25T06:41:54.071Z,9.00
2022-12-25T06:44:20.723Z,9.00
2022-12-25T06:46:47.300Z,9.03
2022-12-25T06:49:13.815Z,9.01
2022-12-25T06:51:40.532Z,8.97
2022-12-25T06:54:07.100Z,9.04
2022-12-25T06:56:34.148Z,9.03
2022-12-25T06:59:03.414Z,9.06
2022-12-25T07:01:34.419Z,9.00
2022-12-25T07:04:03.641Z,9.04
2022-12-25T07:06:30.606Z,8.99
2022-12-25T07:08:57.313Z,9.00
2022-12-25T07:11:24.002Z,9.06
2022-12-25T07:13:51.093Z,9.05
2022-12-25T07:16:17.976Z,9.05
2022-12-25T07:18:44.852Z,9.08
2022-12-25T07:21:14.400Z,9.09
2022-12-25T07:23:41.286Z,9.05
2022-12-25T07:26:08.010Z,9.10
2022-12-25T07:28:34.831Z,9.08
2022-12-25T07:31:03.809Z,9.12
2022-12-25T07:33:30.782Z,9.11
2022-12-25T07:35:57.578Z,9.07
2022-12-25T07:38:24.320Z,9.11
2022-12-25T07:40:51.189Z,9.10
2022-12-25T07:43:17.993Z,9.09
2022-12-25T07:45:44.946Z,9.12
2022-12-25T07:48:16.413Z,9.14
2022-12-25T07:50:43.572Z,9.13
2022-12-25T07:53:10.182Z,9.13
2022-12-25T07:55:36.789Z,9.12
2022-12-25T07:58:03.380Z,9.12
2022-12-25T08:00:33.673Z,9.03
2022-12-25T08:03:00.637Z,9.08
2022-12-25T08:05:27.447Z,9.08
2022-12-25T08:07:57.742Z,9.15
2022-12-25T08:10:25.259Z,9.11
2022-12-25T08:12:52.197Z,9.07
2022-12-25T08:15:18.986Z,9.11
2022-12-25T08:17:45.801Z,9.11
2022-12-25T08:20:12.876Z,9.13
2022-12-25T08:22:39.708Z,9.11
2022-12-25T08:25:06.827Z,9.13
2022-12-25T08:27:34.368Z,9.15
2022-12-25T08:30:00.994Z,9.12
2022-12-25T08:32:27.705Z,9.13
2022-12-25T08:34:54.340Z,9.12
2022-12-25T08:37:20.955Z,9.20
2022-12-25T08:39:47.512Z,9.20
2022-12-25T08:42:15.304Z,9.24
2022-12-25T08:44:42.023Z,9.28
2022-12-25T08:47:08.746Z,9.29
2022-12-25T08:49:35.397Z,9.30
2022-12-25T08:52:02.319Z,9.35
2022-12-25T08:54:31.012Z,9.39
2022-12-25T08:57:02.671Z,9.47
2022-12-25T08:59:29.958Z,9.48
2022-12-25T09:01:56.624Z,9.51
2022-12-25T09:04:23.358Z,9.55
2022-12-25T09:06:51.152Z,9.62
2022-12-25T09:09:17.732Z,9.66
2022-12-25T09:11:44.365Z,9.65
2022-12-25T09:14:13.616Z,9.71
2022-12-25T09:16:40.175Z,9.63
2022-12-25T09:19:07.315Z,9.70
2022-12-25T09:21:36.826Z,9.71
2022-12-25T09:24:05.203Z,9.76
2022-12-25T09:26:31.806Z,9.75
2022-12-25T09:28:58.426Z,9.79
2022-12-25T09:31:25.088Z,9.76
2022-12-25T09:33:52.036Z,9.79
2022-12-25T09:36:19.135Z,9.80
2022-12-25T09:38:45.725Z,9.82
2022-12-25T09:44:17.626Z,9.82
2022-12-25T09:46:50.151Z,9.88
2022-12-25T09:49:24.577Z,9.89
2022-12-25T09:51:58.641Z,9.87
2022-12-25T09:54:38.810Z,9.86
2022-12-25T09:57:05.976Z,9.87
2022-12-25T09:59:32.676Z,9.86
2022-12-25T10:02:25.756Z,9.88
2022-12-25T10:10:33.284Z,9.91
2022-12-25T10:13:26.407Z,9.92
2022-12-25T10:16:13.870Z,9.97
2022-12-25T10:18:52.456Z,10.01
2022-12-25T10:21:20.627Z,10.07
2022-12-25T10:23:52.919Z,10.11
2022-12-25T10:26:22.955Z,10.17
2022-12-25T10:29:19.701Z,10.20
2022-12-25T10:31:48.765Z,10.41
2022-12-25T10:34:16.216Z,10.51
2022-12-25T10:36:45.830Z,10.51
2022-12-25T10:39:17.853Z,10.45
2022-12-25T10:42:24.376Z,10.33
2022-12-25T10:47:38.129Z,10.37
2022-12-25T10:50:12.815Z,10.33
2022-12-25T10:52:54.101Z,10.33
2022-12-25T10:55:26.536Z,10.39
2022-12-25T10:57:55.327Z,10.43
2022-12-25T11:00:24.827Z,10.41
2022-12-25T11:02:51.935Z,10.44
2022-12-25T11:05:36.472Z,10.48
2022-12-25T11:08:04.174Z,10.47
2022-12-25T11:10:44.299Z,10.49
2022-12-25T11:13:29.411Z,10.51
2022-12-25T11:16:36.212Z,10.48
2022-12-25T11:19:03.925Z,10.46
2022-12-25T11:24:19.037Z,10.59
2022-12-25T11:26:49.271Z,10.66
2022-12-25T11:29:26.461Z,10.65
2022-12-25T11:31:55.393Z,10.75
2022-12-25T11:34:31.591Z,10.78
2022-12-25T11:36:59.845Z,10.88
2022-12-25T11:47:40.348Z,10.93
2022-12-25T11:52:52.942Z,11.30
2022-12-25T12:01:06.515Z,11.01
2022-12-25T12:03:39.688Z,11.00
2022-12-25T12:06:15.957Z,10.97
2022-12-25T12:08:43.413Z,10.95
2022-12-25T12:11:19.609Z,10.90
2022-12-25T12:16:30.301Z,10.90
2022-12-25T12:18:57.242Z,10.88
2022-12-25T12:21:27.370Z,10.90
2022-12-25T12:24:13.742Z,10.79
2022-12-25T12:26:43.578Z,10.82
2022-12-25T12:29:34.163Z,10.82
2022-12-25T12:32:03.966Z,10.88
2022-12-25T12:34:42.500Z,10.83
2022-12-25T12:39:55.636Z,10.85
2022-12-25T12:42:26.459Z,10.87
2022-12-25T12:44:57.021Z,10.88
2022-12-25T12:53:31.309Z,11.01
2022-12-25T12:56:13.141Z,11.01
2022-12-25T12:58:46.267Z,11.05
2022-12-25T13:01:31.063Z,11.10
2022-12-25T13:09:49.608Z,11.10
2022-12-25T13:12:17.698Z,11.11
2022-12-25T13:14:46.566Z,11.12
2022-12-25T13:17:20.245Z,11.11
2022-12-25T13:19:51.118Z,11.07
2022-12-25T13:22:32.011Z,11.03
2022-12-25T13:25:02.062Z,11.04
2022-12-25T13:27:30.788Z,11.07
2022-12-25T13:29:58.867Z,11.03
2022-12-25T13:32:29.602Z,10.97
2022-12-25T13:34:56.935Z,11.00
2022-12-25T13:37:27.123Z,11.01
2022-12-25T13:39:55.760Z,10.90
2022-12-25T13:42:27.106Z,10.98
2022-12-25T13:47:37.156Z,10.94
2022-12-25T13:50:26.766Z,10.94
2022-12-25T13:52:55.768Z,10.96
2022-12-25T13:55:25.926Z,10.95
2022-12-25T13:57:54.614Z,10.86
2022-12-25T14:03:00.097Z,10.92
2022-12-25T14:05:34.586Z,10.91
2022-12-25T14:08:18.152Z,10.89
2022-12-25T14:10:48.345Z,10.87
2022-12-25T14:13:16.247Z,10.85
2022-12-25T14:15:45.065Z,10.87
2022-12-25T14:18:17.171Z,10.88
2022-12-25T14:21:04.071Z,10.77
2022-12-25T14:23:47.741Z,10.78
2022-12-25T14:26:20.016Z,10.74
2022-12-25T14:28:49.163Z,10.79
2022-12-25T14:31:16.767Z,10.77
2022-12-25T14:33:43.482Z,10.78
2022-12-25T14:36:12.184Z,10.74
2022-12-25T14:38:41.635Z,10.76
2022-12-25T14:41:38.089Z,10.72
2022-12-25T14:44:24.462Z,10.73
2022-12-25T14:46:51.257Z,10.71
2022-12-25T14:49:24.225Z,10.67
2022-12-25T14:51:51.154Z,10.64
2022-12-25T14:54:22.448Z,10.62
2022-12-25T14:56:53.063Z,10.63
2022-12-25T14:59:21.894Z,10.56
2022-12-25T15:01:57.093Z,10.51
2022-12-25T15:04:24.766Z,10.46
2022-12-25T15:09:35.987Z,10.44
2022-12-25T15:12:03.224Z,10.41
2022-12-25T15:14:31.566Z,10.41
2022-12-25T15:17:01.484Z,10.38
2022-12-25T15:19:37.033Z,10.29
2022-12-25T15:22:04.430Z,10.32
2022-12-25T15:24:32.249Z,10.27
2022-12-25T15:27:00.604Z,10.25
2022-12-25T15:30:00.154Z,10.22
2022-12-25T15:32:19.236Z,10.20
2022-12-25T15:34:47.212Z,10.19
2022-12-25T15:37:14.555Z,10.18
2022-12-25T15:39:41.719Z,10.14
2022-12-25T15:42:12.791Z,10.08
2022-12-25T15:44:41.186Z,10.09
2022-12-25T15:47:10.416Z,10.08
2022-12-25T15:49:37.035Z,10.05
2022-12-25T15:52:05.491Z,10.00
2022-12-25T15:54:32.682Z,9.99
2022-12-25T15:57:03.740Z,9.92
2022-12-25T15:59:31.115Z,9.91
2022-12-25T16:02:00.281Z,9.89
2022-12-25T16:04:28.588Z,9.85
2022-12-25T16:06:56.352Z,9.84
2022-12-25T16:09:22.957Z,9.80
2022-12-25T16:11:50.244Z,9.79
2022-12-25T16:14:17.102Z,9.70
2022-12-25T16:16:43.689Z,9.67
2022-12-25T16:19:10.427Z,9.66
2022-12-25T16:21:40.260Z,9.65
2022-12-25T16:24:07.562Z,9.60
2022-12-25T16:26:34.667Z,9.55
2022-12-25T16:29:06.767Z,9.52
2022-12-25T16:31:34.444Z,9.49
2022-12-25T16:34:01.618Z,9.45
2022-12-25T16:36:28.420Z,9.37
2022-12-25T16:38:55.197Z,9.38
2022-12-25T16:41:21.915Z,9.35
2022-12-25T16:43:49.061Z,9.31
2022-12-25T16:46:18.639Z,9.26
2022-12-25T16:48:45.626Z,9.23
2022-12-25T16:51:17.462Z,9.18
2022-12-25T16:53:44.965Z,9.12
2022-12-25T16:56:14.840Z,9.09
2022-12-25T16:58:42.748Z,9.06
2022-12-25T17:01:11.831Z,9.05
2022-12-25T17:03:39.165Z,9.02
2022-12-25T17:06:14.773Z,8.95
2022-12-25T17:08:41.716Z,8.94
2022-12-25T17:11:08.950Z,8.93
2022-12-25T17:13:36.214Z,8.92
2022-12-25T17:16:24.837Z,8.82
2022-12-25T17:18:55.915Z,8.84
2022-12-25T17:21:24.135Z,8.83
2022-12-25T17:23:50.991Z,8.79
2022-12-25T17:26:17.627Z,8.78
2022-12-25T17:28:44.477Z,8.78
2022-12-25T17:31:13.415Z,8.79
2022-12-25T17:33:42.999Z,8.79
2022-12-25T17:36:13.607Z,8.74
2022-12-25T17:38:40.315Z,8.71
2022-12-25T17:41:09.240Z,8.67
2022-12-25T17:43:37.483Z,8.65
2022-12-25T17:46:07.170Z,8.67
2022-12-25T17:48:36.225Z,8.62
2022-12-25T17:51:06.212Z,8.62
2022-12-25T17:53:35.805Z,8.61
2022-12-25T17:56:02.401Z,8.59
2022-12-25T17:58:29.097Z,8.57
2022-12-25T18:00:55.713Z,8.56
2022-12-25T18:03:23.331Z,8.59
2022-12-25T18:05:50.265Z,8.59
2022-12-25T18:08:16.839Z,8.59
2022-12-25T18:10:44.119Z,8.63
2022-12-25T18:13:11.696Z,8.65
2022-12-25T18:15:40.195Z,8.66
2022-12-25T18:18:08.028Z,8.63
2022-12-25T18:20:40.296Z,8.64
2022-12-25T18:23:08.568Z,8.61
2022-12-25T18:25:40.172Z,8.63
2022-12-25T18:28:06.845Z,8.65
2022-12-25T18:30:33.456Z,8.66
2022-12-25T18:33:00.441Z,8.63
2022-12-25T18:35:29.944Z,8.64
2022-12-25T18:37:56.582Z,8.64
2022-12-25T18:40:23.413Z,8.64
2022-12-25T18:42:52.932Z,8.61
2022-12-25T18:45:21.442Z,8.57
2022-12-25T18:47:48.126Z,8.58
2022-12-25T18:50:15.552Z,8.59
2022-12-25T18:52:49.218Z,8.61
2022-12-25T18:55:18.081Z,8.59
2022-12-25T18:57:45.669Z,8.58
2022-12-25T19:00:13.227Z,8.59
2022-12-25T19:02:40.584Z,8.58
2022-12-25T19:05:07.685Z,8.57
2022-12-25T19:07:35.088Z,8.58
2022-12-25T19:10:02.443Z,8.57
2022-12-25T19:12:29.020Z,8.51
2022-12-25T19:14:55.684Z,8.54
2022-12-25T19:17:26.633Z,8.52
2022-12-25T19:19:57.894Z,8.48
2022-12-25T19:22:24.515Z,8.45
2022-12-25T19:24:51.156Z,8.46
2022-12-25T19:27:17.745Z,8.44
2022-12-25T19:29:44.364Z,8.44
2022-12-25T19:32:11.059Z,8.42
2022-12-25T19:34:37.905Z,8.41
2022-12-25T19:37:04.875Z,8.41
2022-12-25T19:39:31.438Z,8.43
2022-12-25T19:41:57.968Z,8.43
2022-12-25T19:44:24.987Z,8.44
2022-12-25T19:46:52.309Z,8.36
2022-12-25T19:49:19.017Z,8.42
2022-12-25T19:51:47.502Z,8.40
2022-12-25T19:54:20.614Z,8.35
2022-12-25T19:56:48.791Z,8.37
2022-12-25T19:59:16.355Z,8.32
2022-12-25T20:01:44.105Z,8.29
2022-12-25T20:04:11.989Z,8.34
2022-12-25T20:06:42.948Z,8.28
2022-12-25T20:09:14.572Z,8.34
2022-12-25T20:11:44.213Z,8.35
2022-12-25T20:14:14.417Z,8.32
2022-12-25T20:16:41.131Z,8.24
2022-12-25T20:19:08.624Z,8.30
2022-12-25T20:21:35.324Z,8.29
2022-12-25T20:24:02.137Z,8.28
2022-12-25T20:26:31.060Z,8.26
2022-12-25T20:28:58.772Z,8.26
2022-12-25T20:31:29.725Z,8.27
2022-12-25T20:33:59.120Z,8.26
2022-12-25T20:36:32.624Z,8.29
2022-12-25T20:39:03.989Z,8.25
2022-12-25T20:41:30.798Z,8.26
2022-12-25T20:43:58.369Z,8.27
2022-12-25T20:46:26.307Z,8.26
2022-12-25T20:48:53.453Z,8.25
2022-12-25T20:51:23.666Z,8.24
2022-12-25T20:53:51.250Z,8.17
2022-12-25T20:56:20.106Z,8.21
2022-12-25T20:58:47.515Z,8.23
2022-12-25T21:01:17.221Z,8.22
2022-12-25T21:03:44.406Z,8.23
2022-12-25T21:06:11.646Z,8.18
2022-12-25T21:08:38.718Z,8.19
2022-12-25T21:11:05.604Z,8.16
2022-12-25T21:13:36.843Z,8.18
2022-12-25T21:16:07.734Z,8.12
2022-12-25T21:18:35.016Z,8.16
2022-12-25T21:21:05.712Z,8.17
2022-12-25T21:23:35.240Z,8.14
2022-12-25T21:26:23.099Z,8.06
2022-12-25T21:28:52.221Z,8.07
2022-12-25T21:31:20.560Z,8.06
2022-12-25T21:33:55.210Z,8.03
2022-12-25T21:39:06.250Z,8.02
2022-12-25T21:41:34.286Z,8.00
2022-12-25T21:44:01.135Z,8.02
2022-12-25T21:46:28.345Z,7.96
2022-12-25T21:48:55.879Z,7.98
2022-12-25T21:51:46.452Z,7.97
2022-12-25T21:54:14.155Z,8.01
2022-12-25T21:56:45.446Z,8.00
2022-12-25T21:59:16.012Z,7.98
2022-12-25T22:01:42.939Z,7.97
2022-12-25T22:04:10.345Z,7.94
2022-12-25T22:06:56.899Z,7.94
2022-12-25T22:09:23.992Z,7.90
2022-12-25T22:12:10.478Z,7.93
2022-12-25T22:14:57.499Z,7.87
2022-12-25T22:17:48.489Z,7.83
2022-12-25T22:20:18.274Z,7.88
2022-12-25T22:22:45.263Z,7.89
2022-12-25T22:25:13.009Z,7.93
2022-12-25T22:27:41.505Z,7.93
2022-12-25T22:30:12.068Z,7.94
2022-12-25T22:32:39.667Z,7.93
2022-12-25T22:35:06.935Z,7.90
2022-12-25T22:37:33.673Z,7.89
2022-12-25T22:40:02.340Z,7.88
2022-12-25T22:42:29.091Z,7.91
2022-12-25T22:44:55.734Z,7.89
2022-12-25T22:47:22.463Z,7.86
2022-12-25T22:49:49.634Z,7.86
2022-12-25T22:52:16.886Z,7.85
2022-12-25T22:54:43.647Z,7.87
2022-12-25T22:57:10.510Z,7.85
2022-12-25T22:59:37.076Z,7.81
2022-12-25T23:02:04.331Z,7.82
2022-12-25T23:04:31.613Z,7.82
2022-12-25T23:06:58.340Z,7.84
2022-12-25T23:09:27.946Z,7.83
2022-12-25T23:11:57.372Z,7.87
2022-12-25T23:14:41.691Z,7.88
2022-12-25T23:17:33.161Z,7.84
2022-12-25T23:20:20.658Z,7.84
2022-12-25T23:23:07.333Z,7.84
2022-12-25T23:25:55.239Z,7.82
2022-12-25T23:28:41.940Z,7.84
2022-12-25T23:31:09.427Z,7.88
2022-12-25T23:33:36.243Z,7.92
2022-12-25T23:36:03.094Z,7.94
2022-12-25T23:38:29.652Z,7.99
2022-12-25T23:40:56.212Z,7.95
2022-12-25T23:43:22.894Z,7.95
2022-12-25T23:45:49.529Z,7.98
2022-12-25T23:48:16.200Z,7.96
2022-12-25T23:50:42.843Z,7.95
2022-12-25T23:53:10.966Z,7.91
2022-12-25T23:55:37.622Z,7.92
2022-12-25T23:58:04.541Z,7.88
